sensor_id;sensor_type;location;lat;lon;timestamp;P1;durP1;ratioP1;P2;durP2;ratioP2
3359;SDS011;1693;49.602;11.046;2023-05-10T00:01:24;4.90;;;3.70;;
3359;SDS011;1693;49.602;11.046;2023-05-10T00:03:53;4.23;;;3.70;;
3359;SDS011;1693;49.602;11.046;2023-05-10T00:06:22;6.27;;;3.50;;
3359;SDS011;1693;49.602;11.046;2023-05-10T00:08:52;4.37;;;3.90;;
3359;SDS011;1693;49.602;11.046;2023-05-10T00:11:20;4.20;;;3.80;;
3359;SDS011;1693;49.602;11.046;2023-05-10T00:13:51;5.57;;;4.10;;
3359;SDS011;1693;49.602;11.046;2023-05-10T00:16:29;5.40;;;4.90;;
3359;SDS011;1693;49.602;11.046;2023-05-10T00:19:03;3.93;;;3.53;;
3359;SDS011;1693;49.602;11.046;2023-05-10T00:21:32;6.17;;;5.33;;
3359;SDS011;1693;49.602;11.046;2023-05-10T00:24:00;6.00;;;5.30;;
3359;SDS011;1693;49.602;11.046;2023-05-10T00:26:27;7.73;;;5.50;;
3359;SDS011;1693;49.602;11.046;2023-05-10T00:29:00;5.83;;;5.23;;
3359;SDS011;1693;49.602;11.046;2023-05-10T00:31:35;5.77;;;5.17;;
3359;SDS011;1693;49.602;11.046;2023-05-10T00:34:04;8.27;;;6.20;;
3359;SDS011;1693;49.602;11.046;2023-05-10T00:36:33;6.27;;;5.67;;
3359;SDS011;1693;49.602;11.046;2023-05-10T00:39:09;6.20;;;5.70;;
3359;SDS011;1693;49.602;11.046;2023-05-10T00:41:42;7.73;;;6.07;;
3359;SDS011;1693;49.602;11.046;2023-05-10T00:44:14;6.83;;;6.13;;
3359;SDS011;1693;49.602;11.046;2023-05-10T00:46:52;9.20;;;6.70;;
3359;SDS011;1693;49.602;11.046;2023-05-10T00:49:25;7.50;;;6.33;;
3359;SDS011;1693;49.602;11.046;2023-05-10T00:51:59;6.70;;;6.00;;
3359;SDS011;1693;49.602;11.046;2023-05-10T00:54:33;6.60;;;6.00;;
3359;SDS011;1693;49.602;11.046;2023-05-10T00:57:04;7.87;;;6.97;;
3359;SDS011;1693;49.602;11.046;2023-05-10T00:59:38;7.93;;;6.40;;
3359;SDS011;1693;49.602;11.046;2023-05-10T01:02:17;7.30;;;6.23;;
3359;SDS011;1693;49.602;11.046;2023-05-10T01:04:49;7.50;;;6.70;;
3359;SDS011;1693;49.602;11.046;2023-05-10T01:07:16;7.37;;;6.67;;
3359;SDS011;1693;49.602;11.046;2023-05-10T01:09:45;8.00;;;7.20;;
3359;SDS011;1693;49.602;11.046;2023-05-10T01:12:16;6.80;;;6.20;;
3359;SDS011;1693;49.602;11.046;2023-05-10T01:14:49;8.20;;;7.40;;
3359;SDS011;1693;49.602;11.046;2023-05-10T01:17:27;9.17;;;7.90;;
3359;SDS011;1693;49.602;11.046;2023-05-10T01:19:56;13.30;;;8.77;;
3359;SDS011;1693;49.602;11.046;2023-05-10T01:22:30;7.23;;;6.43;;
3359;SDS011;1693;49.602;11.046;2023-05-10T01:25:11;9.03;;;8.00;;
3359;SDS011;1693;49.602;11.046;2023-05-10T01:28:03;9.67;;;7.87;;
3359;SDS011;1693;49.602;11.046;2023-05-10T01:30:50;11.83;;;8.13;;
3359;SDS011;1693;49.602;11.046;2023-05-10T01:33:30;10.30;;;9.33;;
3359;SDS011;1693;49.602;11.046;2023-05-10T01:36:01;10.77;;;8.77;;
3359;SDS011;1693;49.602;11.046;2023-05-10T01:38:35;11.40;;;9.50;;
3359;SDS011;1693;49.602;11.046;2023-05-10T01:41:08;10.20;;;8.60;;
3359;SDS011;1693;49.602;11.046;2023-05-10T01:43:52;9.87;;;8.87;;
3359;SDS011;1693;49.602;11.046;2023-05-10T01:46:37;11.93;;;9.23;;
3359;SDS011;1693;49.602;11.046;2023-05-10T01:49:08;9.87;;;8.87;;
3359;SDS011;1693;49.602;11.046;2023-05-10T01:51:47;10.83;;;9.43;;
3359;SDS011;1693;49.602;11.046;2023-05-10T01:54:23;9.50;;;8.60;;
3359;SDS011;1693;49.602;11.046;2023-05-10T01:56:55;11.60;;;9.83;;
3359;SDS011;1693;49.602;11.046;2023-05-10T01:59:35;10.57;;;8.73;;
3359;SDS011;1693;49.602;11.046;2023-05-10T02:02:23;12.00;;;10.00;;
3359;SDS011;1693;49.602;11.046;2023-05-10T02:04:53;11.07;;;9.80;;
3359;SDS011;1693;49.602;11.046;2023-05-10T02:07:26;14.30;;;11.37;;
3359;SDS011;1693;49.602;11.046;2023-05-10T02:09:55;13.63;;;9.70;;
3359;SDS011;1693;49.602;11.046;2023-05-10T02:12:28;11.47;;;10.27;;
3359;SDS011;1693;49.602;11.046;2023-05-10T02:14:59;13.30;;;11.47;;
3359;SDS011;1693;49.602;11.046;2023-05-10T02:17:35;15.23;;;10.80;;
3359;SDS011;1693;49.602;11.046;2023-05-10T02:20:06;11.83;;;10.60;;
3359;SDS011;1693;49.602;11.046;2023-05-10T02:22:38;13.77;;;10.60;;
3359;SDS011;1693;49.602;11.046;2023-05-10T02:25:11;17.33;;;11.07;;
3359;SDS011;1693;49.602;11.046;2023-05-10T02:27:54;12.83;;;10.80;;
3359;SDS011;1693;49.602;11.046;2023-05-10T02:30:29;13.50;;;11.77;;
3359;SDS011;1693;49.602;11.046;2023-05-10T02:33:04;12.90;;;10.97;;
3359;SDS011;1693;49.602;11.046;2023-05-10T02:35:34;12.40;;;10.30;;
3359;SDS011;1693;49.602;11.046;2023-05-10T02:38:09;14.73;;;12.47;;
3359;SDS011;1693;49.602;11.046;2023-05-10T02:40:44;14.87;;;12.27;;
3359;SDS011;1693;49.602;11.046;2023-05-10T02:43:14;13.50;;;11.93;;
3359;SDS011;1693;49.602;11.046;2023-05-10T02:45:48;17.03;;;11.67;;
3359;SDS011;1693;49.602;11.046;2023-05-10T02:48:27;17.50;;;11.90;;
3359;SDS011;1693;49.602;11.046;2023-05-10T02:51:03;16.00;;;12.73;;
3359;SDS011;1693;49.602;11.046;2023-05-10T02:53:40;12.30;;;10.43;;
3359;SDS011;1693;49.602;11.046;2023-05-10T02:56:12;12.73;;;10.90;;
3359;SDS011;1693;49.602;11.046;2023-05-10T02:58:46;15.10;;;12.33;;
3359;SDS011;1693;49.602;11.046;2023-05-10T03:01:16;14.00;;;12.30;;
3359;SDS011;1693;49.602;11.046;2023-05-10T03:03:52;15.00;;;11.80;;
3359;SDS011;1693;49.602;11.046;2023-05-10T03:06:23;13.03;;;11.30;;
3359;SDS011;1693;49.602;11.046;2023-05-10T03:08:57;17.73;;;11.57;;
3359;SDS011;1693;49.602;11.046;2023-05-10T03:11:35;15.80;;;12.93;;
3359;SDS011;1693;49.602;11.046;2023-05-10T03:14:09;15.73;;;12.67;;
3359;SDS011;1693;49.602;11.046;2023-05-10T03:16:40;15.50;;;13.17;;
3359;SDS011;1693;49.602;11.046;2023-05-10T03:19:21;15.90;;;13.70;;
3359;SDS011;1693;49.602;11.046;2023-05-10T03:21:52;12.33;;;10.07;;
3359;SDS011;1693;49.602;11.046;2023-05-10T03:24:22;11.70;;;9.53;;
3359;SDS011;1693;49.602;11.046;2023-05-10T03:26:56;11.53;;;9.37;;
3359;SDS011;1693;49.602;11.046;2023-05-10T03:29:33;9.40;;;7.53;;
3359;SDS011;1693;49.602;11.046;2023-05-10T03:32:05;6.60;;;5.90;;
3359;SDS011;1693;49.602;11.046;2023-05-10T03:34:42;7.23;;;6.00;;
3359;SDS011;1693;49.602;11.046;2023-05-10T03:37:12;5.40;;;4.57;;
3359;SDS011;1693;49.602;11.046;2023-05-10T03:39:44;5.67;;;5.07;;
3359;SDS011;1693;49.602;11.046;2023-05-10T03:42:14;4.90;;;4.07;;
3359;SDS011;1693;49.602;11.046;2023-05-10T03:44:45;6.57;;;3.40;;
3359;SDS011;1693;49.602;11.046;2023-05-10T03:47:15;2.80;;;2.53;;
3359;SDS011;1693;49.602;11.046;2023-05-10T03:49:48;3.40;;;3.10;;
3359;SDS011;1693;49.602;11.046;2023-05-10T03:52:19;4.60;;;2.47;;
3359;SDS011;1693;49.602;11.046;2023-05-10T03:54:50;2.50;;;2.30;;
3359;SDS011;1693;49.602;11.046;2023-05-10T03:57:20;4.13;;;2.60;;
3359;SDS011;1693;49.602;11.046;2023-05-10T03:59:52;2.13;;;1.93;;
3359;SDS011;1693;49.602;11.046;2023-05-10T04:02:21;2.03;;;1.83;;
3359;SDS011;1693;49.602;11.046;2023-05-10T04:04:58;2.37;;;1.77;;
3359;SDS011;1693;49.602;11.046;2023-05-10T04:07:28;2.43;;;2.23;;
3359;SDS011;1693;49.602;11.046;2023-05-10T04:09:59;2.17;;;1.97;;
3359;SDS011;1693;49.602;11.046;2023-05-10T04:12:27;6.10;;;2.07;;
3359;SDS011;1693;49.602;11.046;2023-05-10T04:14:56;2.43;;;2.17;;
3359;SDS011;1693;49.602;11.046;2023-05-10T04:17:25;2.13;;;1.83;;
3359;SDS011;1693;49.602;11.046;2023-05-10T04:20:02;3.33;;;2.10;;
3359;SDS011;1693;49.602;11.046;2023-05-10T04:22:35;1.80;;;1.50;;
3359;SDS011;1693;49.602;11.046;2023-05-10T04:25:03;2.10;;;1.90;;
3359;SDS011;1693;49.602;11.046;2023-05-10T04:27:35;3.70;;;1.80;;
3359;SDS011;1693;49.602;11.046;2023-05-10T04:30:05;1.80;;;1.60;;
3359;SDS011;1693;49.602;11.046;2023-05-10T04:32:41;2.53;;;2.00;;
3359;SDS011;1693;49.602;11.046;2023-05-10T04:35:20;1.70;;;1.50;;
3359;SDS011;1693;49.602;11.046;2023-05-10T04:37:49;1.87;;;1.23;;
3359;SDS011;1693;49.602;11.046;2023-05-10T04:40:20;11.07;;;8.70;;
3359;SDS011;1693;49.602;11.046;2023-05-10T04:42:51;16.30;;;2.33;;
3359;SDS011;1693;49.602;11.046;2023-05-10T04:45:19;1.70;;;1.17;;
3359;SDS011;1693;49.602;11.046;2023-05-10T04:47:50;1.73;;;1.40;;
3359;SDS011;1693;49.602;11.046;2023-05-10T04:50:23;2.27;;;1.73;;
3359;SDS011;1693;49.602;11.046;2023-05-10T04:52:54;2.90;;;1.23;;
3359;SDS011;1693;49.602;11.046;2023-05-10T04:55:25;2.13;;;1.93;;
3359;SDS011;1693;49.602;11.046;2023-05-10T04:57:58;4.70;;;1.77;;
3359;SDS011;1693;49.602;11.046;2023-05-10T05:00:31;2.50;;;1.80;;
3359;SDS011;1693;49.602;11.046;2023-05-10T05:03:00;1.63;;;1.40;;
3359;SDS011;1693;49.602;11.046;2023-05-10T05:05:34;3.07;;;2.67;;
3359;SDS011;1693;49.602;11.046;2023-05-10T05:08:06;3.83;;;2.90;;
3359;SDS011;1693;49.602;11.046;2023-05-10T05:10:38;1.97;;;1.60;;
3359;SDS011;1693;49.602;11.046;2023-05-10T05:13:08;2.07;;;1.70;;
3359;SDS011;1693;49.602;11.046;2023-05-10T05:15:39;2.03;;;1.60;;
3359;SDS011;1693;49.602;11.046;2023-05-10T05:18:08;2.27;;;1.70;;
3359;SDS011;1693;49.602;11.046;2023-05-10T05:20:43;1.83;;;1.70;;
3359;SDS011;1693;49.602;11.046;2023-05-10T05:23:12;2.77;;;2.33;;
3359;SDS011;1693;49.602;11.046;2023-05-10T05:25:39;1.43;;;1.33;;
3359;SDS011;1693;49.602;11.046;2023-05-10T05:28:08;2.30;;;2.07;;
3359;SDS011;1693;49.602;11.046;2023-05-10T05:30:43;3.77;;;2.77;;
3359;SDS011;1693;49.602;11.046;2023-05-10T05:33:14;5.20;;;1.87;;
3359;SDS011;1693;49.602;11.046;2023-05-10T05:35:49;2.40;;;1.97;;
3359;SDS011;1693;49.602;11.046;2023-05-10T05:38:17;1.70;;;1.50;;
3359;SDS011;1693;49.602;11.046;2023-05-10T05:40:47;1.73;;;1.30;;
3359;SDS011;1693;49.602;11.046;2023-05-10T05:43:21;1.73;;;1.60;;
3359;SDS011;1693;49.602;11.046;2023-05-10T05:45:52;1.43;;;1.33;;
3359;SDS011;1693;49.602;11.046;2023-05-10T05:48:21;1.43;;;1.33;;
3359;SDS011;1693;49.602;11.046;2023-05-10T05:51:01;1.93;;;1.43;;
3359;SDS011;1693;49.602;11.046;2023-05-10T05:53:36;1.67;;;1.50;;
3359;SDS011;1693;49.602;11.046;2023-05-10T05:56:08;1.90;;;1.67;;
3359;SDS011;1693;49.602;11.046;2023-05-10T05:58:43;1.53;;;1.43;;
3359;SDS011;1693;49.602;11.046;2023-05-10T06:01:13;1.70;;;1.50;;
3359;SDS011;1693;49.602;11.046;2023-05-10T06:03:46;1.57;;;1.47;;
3359;SDS011;1693;49.602;11.046;2023-05-10T06:06:19;2.97;;;2.77;;
3359;SDS011;1693;49.602;11.046;2023-05-10T06:08:51;1.73;;;1.43;;
3359;SDS011;1693;49.602;11.046;2023-05-10T06:11:24;1.53;;;1.23;;
3359;SDS011;1693;49.602;11.046;2023-05-10T06:13:57;4.10;;;1.40;;
3359;SDS011;1693;49.602;11.046;2023-05-10T06:16:30;2.27;;;1.60;;
3359;SDS011;1693;49.602;11.046;2023-05-10T06:19:02;1.40;;;1.20;;
3359;SDS011;1693;49.602;11.046;2023-05-10T06:21:35;1.83;;;1.53;;
3359;SDS011;1693;49.602;11.046;2023-05-10T06:24:02;1.30;;;1.13;;
3359;SDS011;1693;49.602;11.046;2023-05-10T06:26:39;1.60;;;1.50;;
3359;SDS011;1693;49.602;11.046;2023-05-10T06:29:12;1.93;;;1.70;;
3359;SDS011;1693;49.602;11.046;2023-05-10T06:31:44;2.97;;;1.70;;
3359;SDS011;1693;49.602;11.046;2023-05-10T06:34:28;1.90;;;1.70;;
3359;SDS011;1693;49.602;11.046;2023-05-10T06:37:08;1.63;;;1.53;;
3359;SDS011;1693;49.602;11.046;2023-05-10T06:39:38;1.73;;;1.47;;
3359;SDS011;1693;49.602;11.046;2023-05-10T06:42:07;6.97;;;1.83;;
3359;SDS011;1693;49.602;11.046;2023-05-10T06:44:38;1.70;;;1.50;;
3359;SDS011;1693;49.602;11.046;2023-05-10T06:47:08;2.43;;;1.50;;
3359;SDS011;1693;49.602;11.046;2023-05-10T06:49:35;1.50;;;1.40;;
3359;SDS011;1693;49.602;11.046;2023-05-10T06:52:09;1.60;;;1.40;;
3359;SDS011;1693;49.602;11.046;2023-05-10T06:54:39;1.60;;;1.30;;
3359;SDS011;1693;49.602;11.046;2023-05-10T06:57:09;1.50;;;1.30;;
3359;SDS011;1693;49.602;11.046;2023-05-10T06:59:38;2.07;;;1.63;;
3359;SDS011;1693;49.602;11.046;2023-05-10T07:02:07;2.50;;;1.30;;
3359;SDS011;1693;49.602;11.046;2023-05-10T07:04:41;2.23;;;1.30;;
3359;SDS011;1693;49.602;11.046;2023-05-10T07:07:16;2.43;;;1.70;;
3359;SDS011;1693;49.602;11.046;2023-05-10T07:09:49;1.97;;;1.30;;
3359;SDS011;1693;49.602;11.046;2023-05-10T07:12:23;1.47;;;1.37;;
3359;SDS011;1693;49.602;11.046;2023-05-10T07:14:51;4.37;;;1.43;;
3359;SDS011;1693;49.602;11.046;2023-05-10T07:17:22;1.50;;;1.23;;
3359;SDS011;1693;49.602;11.046;2023-05-10T07:19:55;1.67;;;1.53;;
3359;SDS011;1693;49.602;11.046;2023-05-10T07:22:26;1.47;;;1.37;;
3359;SDS011;1693;49.602;11.046;2023-05-10T07:25:02;4.57;;;1.50;;
3359;SDS011;1693;49.602;11.046;2023-05-10T07:27:34;1.50;;;1.20;;
3359;SDS011;1693;49.602;11.046;2023-05-10T07:30:05;1.70;;;1.43;;
3359;SDS011;1693;49.602;11.046;2023-05-10T07:32:35;1.83;;;1.67;;
3359;SDS011;1693;49.602;11.046;2023-05-10T07:35:04;1.23;;;1.03;;
3359;SDS011;1693;49.602;11.046;2023-05-10T07:37:43;1.50;;;1.17;;
3359;SDS011;1693;49.602;11.046;2023-05-10T07:40:11;1.80;;;1.20;;
3359;SDS011;1693;49.602;11.046;2023-05-10T07:42:46;1.27;;;1.07;;
3359;SDS011;1693;49.602;11.046;2023-05-10T07:45:16;2.23;;;1.00;;
3359;SDS011;1693;49.602;11.046;2023-05-10T07:47:48;1.00;;;0.77;;
3359;SDS011;1693;49.602;11.046;2023-05-10T07:50:25;2.00;;;1.20;;
3359;SDS011;1693;49.602;11.046;2023-05-10T07:52:58;6.03;;;1.20;;
3359;SDS011;1693;49.602;11.046;2023-05-10T07:55:27;1.27;;;1.13;;
3359;SDS011;1693;49.602;11.046;2023-05-10T07:57:58;2.27;;;1.33;;
3359;SDS011;1693;49.602;11.046;2023-05-10T08:00:38;1.37;;;1.20;;
3359;SDS011;1693;49.602;11.046;2023-05-10T08:03:16;1.40;;;1.10;;
3359;SDS011;1693;49.602;11.046;2023-05-10T08:05:47;1.20;;;1.07;;
3359;SDS011;1693;49.602;11.046;2023-05-10T08:08:25;1.63;;;1.20;;
3359;SDS011;1693;49.602;11.046;2023-05-10T08:10:58;1.40;;;1.10;;
3359;SDS011;1693;49.602;11.046;2023-05-10T08:13:26;1.87;;;1.10;;
3359;SDS011;1693;49.602;11.046;2023-05-10T08:15:53;1.73;;;1.30;;
3359;SDS011;1693;49.602;11.046;2023-05-10T08:18:22;1.90;;;1.23;;
3359;SDS011;1693;49.602;11.046;2023-05-10T08:20:53;2.03;;;1.50;;
3359;SDS011;1693;49.602;11.046;2023-05-10T08:23:31;1.40;;;1.27;;
3359;SDS011;1693;49.602;11.046;2023-05-10T08:26:09;1.90;;;1.50;;
3359;SDS011;1693;49.602;11.046;2023-05-10T08:28:55;1.50;;;1.30;;
3359;SDS011;1693;49.602;11.046;2023-05-10T08:31:31;1.57;;;1.03;;
3359;SDS011;1693;49.602;11.046;2023-05-10T08:33:59;2.07;;;1.40;;
3359;SDS011;1693;49.602;11.046;2023-05-10T08:36:31;1.50;;;1.40;;
3359;SDS011;1693;49.602;11.046;2023-05-10T08:39:05;1.97;;;1.67;;
3359;SDS011;1693;49.602;11.046;2023-05-10T08:41:35;1.70;;;1.57;;
3359;SDS011;1693;49.602;11.046;2023-05-10T08:44:08;1.40;;;1.27;;
3359;SDS011;1693;49.602;11.046;2023-05-10T08:46:37;2.53;;;1.60;;
3359;SDS011;1693;49.602;11.046;2023-05-10T08:49:13;3.27;;;1.87;;
3359;SDS011;1693;49.602;11.046;2023-05-10T08:51:49;2.30;;;1.40;;
3359;SDS011;1693;49.602;11.046;2023-05-10T08:54:20;2.60;;;1.37;;
3359;SDS011;1693;49.602;11.046;2023-05-10T08:56:58;2.80;;;1.47;;
3359;SDS011;1693;49.602;11.046;2023-05-10T08:59:29;2.43;;;1.60;;
3359;SDS011;1693;49.602;11.046;2023-05-10T09:02:05;2.07;;;1.40;;
3359;SDS011;1693;49.602;11.046;2023-05-10T09:04:34;2.20;;;1.50;;
3359;SDS011;1693;49.602;11.046;2023-05-10T09:07:04;1.30;;;1.20;;
3359;SDS011;1693;49.602;11.046;2023-05-10T09:09:38;2.27;;;1.80;;
3359;SDS011;1693;49.602;11.046;2023-05-10T09:12:10;1.77;;;1.67;;
3359;SDS011;1693;49.602;11.046;2023-05-10T09:14:42;3.30;;;1.50;;
3359;SDS011;1693;49.602;11.046;2023-05-10T09:17:19;1.40;;;1.27;;
3359;SDS011;1693;49.602;11.046;2023-05-10T09:19:51;1.60;;;1.50;;
3359;SDS011;1693;49.602;11.046;2023-05-10T09:22:42;2.90;;;1.37;;
3359;SDS011;1693;49.602;11.046;2023-05-10T09:25:20;2.10;;;1.70;;
3359;SDS011;1693;49.602;11.046;2023-05-10T09:27:53;1.23;;;1.10;;
3359;SDS011;1693;49.602;11.046;2023-05-10T09:30:24;1.63;;;1.37;;
3359;SDS011;1693;49.602;11.046;2023-05-10T09:32:53;2.50;;;1.30;;
3359;SDS011;1693;49.602;11.046;2023-05-10T09:35:25;2.00;;;1.37;;
3359;SDS011;1693;49.602;11.046;2023-05-10T09:37:54;1.43;;;1.30;;
3359;SDS011;1693;49.602;11.046;2023-05-10T09:40:25;1.50;;;1.40;;
3359;SDS011;1693;49.602;11.046;2023-05-10T09:42:55;2.80;;;1.63;;
3359;SDS011;1693;49.602;11.046;2023-05-10T09:45:30;5.33;;;1.30;;
3359;SDS011;1693;49.602;11.046;2023-05-10T09:48:02;1.60;;;1.40;;
3359;SDS011;1693;49.602;11.046;2023-05-10T09:50:30;4.17;;;1.40;;
3359;SDS011;1693;49.602;11.046;2023-05-10T09:53:03;2.20;;;2.00;;
3359;SDS011;1693;49.602;11.046;2023-05-10T09:55:39;3.10;;;1.70;;
3359;SDS011;1693;49.602;11.046;2023-05-10T09:58:12;1.50;;;1.37;;
3359;SDS011;1693;49.602;11.046;2023-05-10T10:00:41;1.60;;;1.50;;
3359;SDS011;1693;49.602;11.046;2023-05-10T10:03:12;3.20;;;1.70;;
3359;SDS011;1693;49.602;11.046;2023-05-10T10:05:41;1.77;;;1.30;;
3359;SDS011;1693;49.602;11.046;2023-05-10T10:08:12;1.93;;;1.30;;
3359;SDS011;1693;49.602;11.046;2023-05-10T10:10:44;2.27;;;1.30;;
3359;SDS011;1693;49.602;11.046;2023-05-10T10:13:15;2.00;;;1.60;;
3359;SDS011;1693;49.602;11.046;2023-05-10T10:15:47;1.40;;;1.00;;
3359;SDS011;1693;49.602;11.046;2023-05-10T10:18:18;3.80;;;1.40;;
3359;SDS011;1693;49.602;11.046;2023-05-10T10:20:49;1.50;;;1.10;;
3359;SDS011;1693;49.602;11.046;2023-05-10T10:23:19;1.43;;;1.23;;
3359;SDS011;1693;49.602;11.046;2023-05-10T10:25:55;2.37;;;1.17;;
3359;SDS011;1693;49.602;11.046;2023-05-10T10:28:26;2.53;;;1.00;;
3359;SDS011;1693;49.602;11.046;2023-05-10T10:31:10;2.97;;;1.40;;
3359;SDS011;1693;49.602;11.046;2023-05-10T10:33:51;1.40;;;1.10;;
3359;SDS011;1693;49.602;11.046;2023-05-10T10:36:30;4.00;;;1.20;;
3359;SDS011;1693;49.602;11.046;2023-05-10T10:39:07;1.60;;;1.23;;
3359;SDS011;1693;49.602;11.046;2023-05-10T10:41:49;2.27;;;1.60;;
3359;SDS011;1693;49.602;11.046;2023-05-10T10:47:08;1.40;;;1.30;;
3359;SDS011;1693;49.602;11.046;2023-05-10T10:53:32;1.30;;;1.00;;
3359;SDS011;1693;49.602;11.046;2023-05-10T10:56:07;1.60;;;1.10;;
3359;SDS011;1693;49.602;11.046;2023-05-10T10:58:42;2.60;;;1.43;;
3359;SDS011;1693;49.602;11.046;2023-05-10T11:01:22;1.77;;;1.50;;
3359;SDS011;1693;49.602;11.046;2023-05-10T11:06:45;1.50;;;1.40;;
3359;SDS011;1693;49.602;11.046;2023-05-10T11:09:14;1.60;;;1.33;;
3359;SDS011;1693;49.602;11.046;2023-05-10T11:11:52;1.67;;;1.20;;
3359;SDS011;1693;49.602;11.046;2023-05-10T11:14:26;2.97;;;1.60;;
3359;SDS011;1693;49.602;11.046;2023-05-10T11:17:01;1.83;;;1.33;;
3359;SDS011;1693;49.602;11.046;2023-05-10T11:20:06;1.77;;;1.37;;
3359;SDS011;1693;49.602;11.046;2023-05-10T11:22:52;1.20;;;1.10;;
3359;SDS011;1693;49.602;11.046;2023-05-10T11:25:26;2.47;;;1.20;;
3359;SDS011;1693;49.602;11.046;2023-05-10T11:27:56;1.90;;;1.60;;
3359;SDS011;1693;49.602;11.046;2023-05-10T11:30:37;2.80;;;1.77;;
3359;SDS011;1693;49.602;11.046;2023-05-10T11:33:14;1.90;;;1.67;;
3359;SDS011;1693;49.602;11.046;2023-05-10T11:35:48;2.43;;;1.70;;
3359;SDS011;1693;49.602;11.046;2023-05-10T11:38:22;2.87;;;1.93;;
3359;SDS011;1693;49.602;11.046;2023-05-10T11:40:52;1.63;;;1.50;;
3359;SDS011;1693;49.602;11.046;2023-05-10T11:43:26;2.17;;;1.63;;
3359;SDS011;1693;49.602;11.046;2023-05-10T11:46:05;2.00;;;1.40;;
3359;SDS011;1693;49.602;11.046;2023-05-10T11:48:36;3.30;;;1.83;;
3359;SDS011;1693;49.602;11.046;2023-05-10T11:51:09;2.80;;;1.93;;
3359;SDS011;1693;49.602;11.046;2023-05-10T11:53:40;2.73;;;1.83;;
3359;SDS011;1693;49.602;11.046;2023-05-10T11:56:09;1.50;;;1.40;;
3359;SDS011;1693;49.602;11.046;2023-05-10T11:58:39;3.20;;;1.53;;
3359;SDS011;1693;49.602;11.046;2023-05-10T12:01:11;3.10;;;1.70;;
3359;SDS011;1693;49.602;11.046;2023-05-10T12:03:41;3.20;;;1.97;;
3359;SDS011;1693;49.602;11.046;2023-05-10T12:06:12;1.80;;;1.40;;
3359;SDS011;1693;49.602;11.046;2023-05-10T12:08:44;2.13;;;1.63;;
3359;SDS011;1693;49.602;11.046;2023-05-10T12:11:17;2.17;;;1.20;;
3359;SDS011;1693;49.602;11.046;2023-05-10T12:13:47;2.27;;;1.50;;
3359;SDS011;1693;49.602;11.046;2023-05-10T12:16:24;4.30;;;1.30;;
3359;SDS011;1693;49.602;11.046;2023-05-10T12:18:56;1.57;;;1.47;;
3359;SDS011;1693;49.602;11.046;2023-05-10T12:21:29;3.77;;;1.30;;
3359;SDS011;1693;49.602;11.046;2023-05-10T12:24:01;1.40;;;1.30;;
3359;SDS011;1693;49.602;11.046;2023-05-10T12:26:32;1.83;;;1.33;;
3359;SDS011;1693;49.602;11.046;2023-05-10T12:29:12;2.30;;;1.20;;
3359;SDS011;1693;49.602;11.046;2023-05-10T12:32:05;1.50;;;1.20;;
3359;SDS011;1693;49.602;11.046;2023-05-10T12:34:34;2.37;;;1.57;;
3359;SDS011;1693;49.602;11.046;2023-05-10T12:37:07;1.60;;;1.37;;
3359;SDS011;1693;49.602;11.046;2023-05-10T12:39:44;2.63;;;1.60;;
3359;SDS011;1693;49.602;11.046;2023-05-10T12:42:13;1.53;;;1.23;;
3359;SDS011;1693;49.602;11.046;2023-05-10T12:44:47;1.93;;;1.20;;
3359;SDS011;1693;49.602;11.046;2023-05-10T12:47:19;2.77;;;1.40;;
3359;SDS011;1693;49.602;11.046;2023-05-10T12:49:48;1.63;;;1.33;;
3359;SDS011;1693;49.602;11.046;2023-05-10T12:52:18;2.00;;;1.33;;
3359;SDS011;1693;49.602;11.046;2023-05-10T12:54:48;3.83;;;1.57;;
3359;SDS011;1693;49.602;11.046;2023-05-10T12:57:17;1.53;;;1.40;;
3359;SDS011;1693;49.602;11.046;2023-05-10T12:59:49;1.90;;;1.70;;
3359;SDS011;1693;49.602;11.046;2023-05-10T13:02:20;2.13;;;1.50;;
3359;SDS011;1693;49.602;11.046;2023-05-10T13:04:54;1.50;;;1.10;;
3359;SDS011;1693;49.602;11.046;2023-05-10T13:07:23;1.60;;;1.30;;
3359;SDS011;1693;49.602;11.046;2023-05-10T13:09:52;1.87;;;1.43;;
3359;SDS011;1693;49.602;11.046;2023-05-10T13:12:26;1.67;;;1.43;;
3359;SDS011;1693;49.602;11.046;2023-05-10T13:14:54;2.50;;;1.30;;
3359;SDS011;1693;49.602;11.046;2023-05-10T13:17:29;1.30;;;1.07;;
3359;SDS011;1693;49.602;11.046;2023-05-10T13:20:00;2.17;;;1.80;;
3359;SDS011;1693;49.602;11.046;2023-05-10T13:22:30;2.20;;;1.60;;
3359;SDS011;1693;49.602;11.046;2023-05-10T13:24:57;3.33;;;1.70;;
3359;SDS011;1693;49.602;11.046;2023-05-10T13:27:27;9.43;;;2.17;;
3359;SDS011;1693;49.602;11.046;2023-05-10T13:29:54;2.50;;;1.83;;
3359;SDS011;1693;49.602;11.046;2023-05-10T13:32:26;2.83;;;1.83;;
3359;SDS011;1693;49.602;11.046;2023-05-10T13:34:55;1.57;;;1.43;;
3359;SDS011;1693;49.602;11.046;2023-05-10T13:37:25;2.10;;;1.90;;
3359;SDS011;1693;49.602;11.046;2023-05-10T13:39:56;3.77;;;1.90;;
3359;SDS011;1693;49.602;11.046;2023-05-10T13:42:26;2.43;;;1.97;;
3359;SDS011;1693;49.602;11.046;2023-05-10T13:44:58;1.90;;;1.70;;
3359;SDS011;1693;49.602;11.046;2023-05-10T13:47:29;9.60;;;2.20;;
3359;SDS011;1693;49.602;11.046;2023-05-10T13:50:00;5.70;;;1.97;;
3359;SDS011;1693;49.602;11.046;2023-05-10T13:52:32;2.23;;;2.03;;
3359;SDS011;1693;49.602;11.046;2023-05-10T13:55:02;4.03;;;2.20;;
3359;SDS011;1693;49.602;11.046;2023-05-10T13:57:32;2.70;;;2.50;;
3359;SDS011;1693;49.602;11.046;2023-05-10T14:00:03;4.60;;;2.10;;
3359;SDS011;1693;49.602;11.046;2023-05-10T14:02:36;3.70;;;2.03;;
3359;SDS011;1693;49.602;11.046;2023-05-10T14:05:08;2.70;;;2.23;;
3359;SDS011;1693;49.602;11.046;2023-05-10T14:07:38;3.47;;;2.03;;
3359;SDS011;1693;49.602;11.046;2023-05-10T14:10:09;2.07;;;1.87;;
3359;SDS011;1693;49.602;11.046;2023-05-10T14:12:40;2.20;;;1.87;;
3359;SDS011;1693;49.602;11.046;2023-05-10T14:15:09;2.70;;;1.90;;
3359;SDS011;1693;49.602;11.046;2023-05-10T14:17:41;2.83;;;1.87;;
3359;SDS011;1693;49.602;11.046;2023-05-10T14:20:11;11.43;;;3.30;;
3359;SDS011;1693;49.602;11.046;2023-05-10T14:22:55;1.97;;;1.70;;
3359;SDS011;1693;49.602;11.046;2023-05-10T14:25:25;5.80;;;2.03;;
3359;SDS011;1693;49.602;11.046;2023-05-10T14:28:04;3.20;;;2.73;;
3359;SDS011;1693;49.602;11.046;2023-05-10T14:30:34;4.30;;;3.40;;
3359;SDS011;1693;49.602;11.046;2023-05-10T14:33:16;3.20;;;2.90;;
3359;SDS011;1693;49.602;11.046;2023-05-10T14:35:47;2.73;;;2.53;;
3359;SDS011;1693;49.602;11.046;2023-05-10T14:38:21;7.40;;;3.60;;
3359;SDS011;1693;49.602;11.046;2023-05-10T14:40:52;4.03;;;3.63;;
3359;SDS011;1693;49.602;11.046;2023-05-10T14:43:19;6.73;;;4.50;;
3359;SDS011;1693;49.602;11.046;2023-05-10T14:45:47;7.67;;;3.93;;
3359;SDS011;1693;49.602;11.046;2023-05-10T14:48:33;4.73;;;4.20;;
3359;SDS011;1693;49.602;11.046;2023-05-10T14:51:17;7.27;;;4.00;;
3359;SDS011;1693;49.602;11.046;2023-05-10T14:53:48;6.83;;;4.07;;
3359;SDS011;1693;49.602;11.046;2023-05-10T14:56:24;7.10;;;4.23;;
3359;SDS011;1693;49.602;11.046;2023-05-10T14:58:54;7.47;;;4.07;;
3359;SDS011;1693;49.602;11.046;2023-05-10T15:01:22;9.07;;;5.07;;
3359;SDS011;1693;49.602;11.046;2023-05-10T15:03:54;7.67;;;4.83;;
3359;SDS011;1693;49.602;11.046;2023-05-10T15:06:30;4.80;;;4.10;;
3359;SDS011;1693;49.602;11.046;2023-05-10T15:09:04;3.20;;;2.90;;
3359;SDS011;1693;49.602;11.046;2023-05-10T15:11:38;3.33;;;3.03;;
3359;SDS011;1693;49.602;11.046;2023-05-10T15:14:09;4.70;;;4.17;;
3359;SDS011;1693;49.602;11.046;2023-05-10T15:16:36;3.17;;;2.67;;
3359;SDS011;1693;49.602;11.046;2023-05-10T15:19:09;5.67;;;2.50;;
3359;SDS011;1693;49.602;11.046;2023-05-10T15:21:38;5.13;;;2.47;;
3359;SDS011;1693;49.602;11.046;2023-05-10T15:24:09;3.63;;;2.97;;
3359;SDS011;1693;49.602;11.046;2023-05-10T15:26:41;2.77;;;2.40;;
3359;SDS011;1693;49.602;11.046;2023-05-10T15:29:10;9.00;;;2.77;;
3359;SDS011;1693;49.602;11.046;2023-05-10T15:31:47;5.60;;;3.83;;
3359;SDS011;1693;49.602;11.046;2023-05-10T15:34:21;5.30;;;3.40;;
3359;SDS011;1693;49.602;11.046;2023-05-10T15:36:52;5.47;;;3.00;;
3359;SDS011;1693;49.602;11.046;2023-05-10T15:39:20;4.37;;;3.30;;
3359;SDS011;1693;49.602;11.046;2023-05-10T15:41:48;9.40;;;3.07;;